Terminal Aerodrome Forecast
Issued by NWS Bismarck, ND

Home | Current Version | Previous Version | Text Only | Print | Product List | Glossary Off
Versions: 1 2 3 4 5 6 7 8 9 10 11 12 13 14 15 16 17 18 19 20

000
FTUS43 KBIS 091200 AAA
TAFBIS
TAF AMD
KBIS 091214Z 0912/1012 07003KT 1/4SM FG FU SKC
      TEMPO 0912/0913 1SM BR FU
     FM091400 09006KT 3SM FU SKC
     FM091600 09007KT P6SM SCT040
     FM092000 15007KT P6SM FEW050=

USA.gov is the U.S. government's official web portal to all federal, state and local government web resources and services.